sensor_id;sensor_type;location;lat;lon;timestamp;P1;durP1;ratioP1;P2;durP2;ratioP2
27728;SDS011;15126;42.186;24.340;2023-06-10T00:02:04;9.23;;;7.13;;
27728;SDS011;15126;42.186;24.340;2023-06-10T00:04:32;15.70;;;7.90;;
27728;SDS011;15126;42.186;24.340;2023-06-10T00:07:01;9.13;;;7.97;;
27728;SDS011;15126;42.186;24.340;2023-06-10T00:09:29;9.47;;;7.23;;
27728;SDS011;15126;42.186;24.340;2023-06-10T00:11:55;8.63;;;7.73;;
27728;SDS011;15126;42.186;24.340;2023-06-10T00:14:26;8.53;;;7.77;;
27728;SDS011;15126;42.186;24.340;2023-06-10T00:16:53;7.90;;;7.10;;
27728;SDS011;15126;42.186;24.340;2023-06-10T00:19:20;11.43;;;8.30;;
27728;SDS011;15126;42.186;24.340;2023-06-10T00:21:50;8.43;;;7.53;;
27728;SDS011;15126;42.186;24.340;2023-06-10T00:24:18;13.17;;;8.30;;
27728;SDS011;15126;42.186;24.340;2023-06-10T00:26:45;10.83;;;8.23;;
27728;SDS011;15126;42.186;24.340;2023-06-10T00:29:12;12.20;;;8.23;;
27728;SDS011;15126;42.186;24.340;2023-06-10T00:31:40;10.97;;;7.93;;
27728;SDS011;15126;42.186;24.340;2023-06-10T00:34:07;10.10;;;9.10;;
27728;SDS011;15126;42.186;24.340;2023-06-10T00:36:34;10.20;;;8.50;;
27728;SDS011;15126;42.186;24.340;2023-06-10T00:39:01;10.00;;;9.00;;
27728;SDS011;15126;42.186;24.340;2023-06-10T00:41:30;9.87;;;8.93;;
27728;SDS011;15126;42.186;24.340;2023-06-10T00:43:59;9.43;;;8.53;;
27728;SDS011;15126;42.186;24.340;2023-06-10T00:46:25;9.07;;;7.40;;
27728;SDS011;15126;42.186;24.340;2023-06-10T00:48:54;11.37;;;8.43;;
27728;SDS011;15126;42.186;24.340;2023-06-10T00:51:21;8.80;;;7.80;;
27728;SDS011;15126;42.186;24.340;2023-06-10T00:53:48;12.37;;;8.27;;
27728;SDS011;15126;42.186;24.340;2023-06-10T00:56:16;11.80;;;7.73;;
27728;SDS011;15126;42.186;24.340;2023-06-10T00:58:42;9.43;;;8.30;;
27728;SDS011;15126;42.186;24.340;2023-06-10T01:01:09;11.97;;;9.60;;
27728;SDS011;15126;42.186;24.340;2023-06-10T01:03:37;11.83;;;9.30;;
27728;SDS011;15126;42.186;24.340;2023-06-10T01:06:09;12.87;;;9.40;;
27728;SDS011;15126;42.186;24.340;2023-06-10T01:08:45;11.67;;;9.10;;
27728;SDS011;15126;42.186;24.340;2023-06-10T01:11:19;13.33;;;9.20;;
27728;SDS011;15126;42.186;24.340;2023-06-10T01:13:50;13.67;;;9.20;;
27728;SDS011;15126;42.186;24.340;2023-06-10T01:16:18;9.70;;;8.90;;
27728;SDS011;15126;42.186;24.340;2023-06-10T01:18:46;8.90;;;8.20;;
27728;SDS011;15126;42.186;24.340;2023-06-10T01:21:16;9.73;;;8.83;;
27728;SDS011;15126;42.186;24.340;2023-06-10T01:23:46;10.17;;;9.27;;
27728;SDS011;15126;42.186;24.340;2023-06-10T01:26:13;9.90;;;9.00;;
27728;SDS011;15126;42.186;24.340;2023-06-10T01:28:44;10.83;;;9.73;;
27728;SDS011;15126;42.186;24.340;2023-06-10T01:31:20;14.33;;;10.33;;
27728;SDS011;15126;42.186;24.340;2023-06-10T01:33:59;15.90;;;9.57;;
27728;SDS011;15126;42.186;24.340;2023-06-10T01:36:28;11.80;;;9.33;;
27728;SDS011;15126;42.186;24.340;2023-06-10T01:38:56;8.87;;;8.10;;
27728;SDS011;15126;42.186;24.340;2023-06-10T01:41:25;9.33;;;8.37;;
27728;SDS011;15126;42.186;24.340;2023-06-10T01:43:53;11.30;;;10.30;;
27728;SDS011;15126;42.186;24.340;2023-06-10T01:46:21;9.53;;;8.53;;
27728;SDS011;15126;42.186;24.340;2023-06-10T01:48:48;13.87;;;8.90;;
27728;SDS011;15126;42.186;24.340;2023-06-10T01:51:14;9.03;;;8.33;;
27728;SDS011;15126;42.186;24.340;2023-06-10T01:53:43;12.40;;;8.30;;
27728;SDS011;15126;42.186;24.340;2023-06-10T01:56:09;9.87;;;8.97;;
27728;SDS011;15126;42.186;24.340;2023-06-10T01:58:41;8.07;;;7.33;;
27728;SDS011;15126;42.186;24.340;2023-06-10T02:01:08;9.63;;;8.77;;
27728;SDS011;15126;42.186;24.340;2023-06-10T02:03:36;9.40;;;8.70;;
27728;SDS011;15126;42.186;24.340;2023-06-10T02:06:04;9.07;;;8.27;;
27728;SDS011;15126;42.186;24.340;2023-06-10T02:08:30;10.77;;;9.00;;
27728;SDS011;15126;42.186;24.340;2023-06-10T02:10:59;10.00;;;8.60;;
27728;SDS011;15126;42.186;24.340;2023-06-10T02:13:25;9.87;;;8.63;;
27728;SDS011;15126;42.186;24.340;2023-06-10T02:15:52;11.83;;;7.97;;
27728;SDS011;15126;42.186;24.340;2023-06-10T02:18:19;9.00;;;8.03;;
27728;SDS011;15126;42.186;24.340;2023-06-10T02:20:47;10.07;;;9.07;;
27728;SDS011;15126;42.186;24.340;2023-06-10T02:23:14;11.70;;;8.33;;
27728;SDS011;15126;42.186;24.340;2023-06-10T02:25:40;10.97;;;7.87;;
27728;SDS011;15126;42.186;24.340;2023-06-10T02:28:09;10.07;;;8.60;;
27728;SDS011;15126;42.186;24.340;2023-06-10T02:30:38;10.23;;;8.80;;
27728;SDS011;15126;42.186;24.340;2023-06-10T02:33:05;10.27;;;8.50;;
27728;SDS011;15126;42.186;24.340;2023-06-10T02:35:35;10.47;;;9.00;;
27728;SDS011;15126;42.186;24.340;2023-06-10T02:38:02;11.10;;;8.30;;
27728;SDS011;15126;42.186;24.340;2023-06-10T02:40:30;12.57;;;8.30;;
27728;SDS011;15126;42.186;24.340;2023-06-10T02:42:56;10.80;;;8.10;;
27728;SDS011;15126;42.186;24.340;2023-06-10T02:45:25;11.73;;;9.37;;
27728;SDS011;15126;42.186;24.340;2023-06-10T02:47:52;17.40;;;8.50;;
27728;SDS011;15126;42.186;24.340;2023-06-10T02:50:19;9.60;;;7.57;;
27728;SDS011;15126;42.186;24.340;2023-06-10T02:52:46;8.23;;;7.23;;
27728;SDS011;15126;42.186;24.340;2023-06-10T02:55:12;12.77;;;8.07;;
27728;SDS011;15126;42.186;24.340;2023-06-10T02:57:39;11.50;;;8.00;;
27728;SDS011;15126;42.186;24.340;2023-06-10T03:00:06;10.20;;;8.70;;
27728;SDS011;15126;42.186;24.340;2023-06-10T03:02:38;9.37;;;8.20;;
27728;SDS011;15126;42.186;24.340;2023-06-10T03:05:05;8.33;;;7.13;;
27728;SDS011;15126;42.186;24.340;2023-06-10T03:07:35;12.00;;;8.63;;
27728;SDS011;15126;42.186;24.340;2023-06-10T03:10:02;9.47;;;8.37;;
27728;SDS011;15126;42.186;24.340;2023-06-10T03:12:30;9.97;;;8.97;;
27728;SDS011;15126;42.186;24.340;2023-06-10T03:14:56;9.37;;;7.93;;
27728;SDS011;15126;42.186;24.340;2023-06-10T03:17:23;9.07;;;8.17;;
27728;SDS011;15126;42.186;24.340;2023-06-10T03:19:51;14.77;;;9.80;;
27728;SDS011;15126;42.186;24.340;2023-06-10T03:22:18;9.63;;;8.27;;
27728;SDS011;15126;42.186;24.340;2023-06-10T03:24:45;9.33;;;8.23;;
27728;SDS011;15126;42.186;24.340;2023-06-10T03:27:15;13.73;;;8.60;;
27728;SDS011;15126;42.186;24.340;2023-06-10T03:29:42;10.30;;;9.00;;
27728;SDS011;15126;42.186;24.340;2023-06-10T03:32:09;13.77;;;8.03;;
27728;SDS011;15126;42.186;24.340;2023-06-10T03:34:36;10.77;;;7.63;;
27728;SDS011;15126;42.186;24.340;2023-06-10T03:37:06;8.83;;;7.93;;
27728;SDS011;15126;42.186;24.340;2023-06-10T03:39:33;11.30;;;8.20;;
27728;SDS011;15126;42.186;24.340;2023-06-10T03:42:00;16.83;;;10.50;;
27728;SDS011;15126;42.186;24.340;2023-06-10T03:44:27;13.87;;;9.00;;
27728;SDS011;15126;42.186;24.340;2023-06-10T03:46:54;11.10;;;9.23;;
27728;SDS011;15126;42.186;24.340;2023-06-10T03:49:21;10.67;;;9.43;;
27728;SDS011;15126;42.186;24.340;2023-06-10T03:51:52;10.60;;;9.20;;
27728;SDS011;15126;42.186;24.340;2023-06-10T03:54:20;11.70;;;9.33;;
27728;SDS011;15126;42.186;24.340;2023-06-10T03:56:47;9.93;;;8.27;;
27728;SDS011;15126;42.186;24.340;2023-06-10T03:59:14;11.07;;;9.70;;
27728;SDS011;15126;42.186;24.340;2023-06-10T04:01:41;11.70;;;9.87;;
27728;SDS011;15126;42.186;24.340;2023-06-10T04:04:08;10.23;;;8.53;;
27728;SDS011;15126;42.186;24.340;2023-06-10T04:06:35;16.27;;;9.17;;
27728;SDS011;15126;42.186;24.340;2023-06-10T04:09:03;15.53;;;9.40;;
27728;SDS011;15126;42.186;24.340;2023-06-10T04:11:31;13.30;;;9.10;;
27728;SDS011;15126;42.186;24.340;2023-06-10T04:13:58;10.07;;;9.07;;
27728;SDS011;15126;42.186;24.340;2023-06-10T04:16:25;11.60;;;8.77;;
27728;SDS011;15126;42.186;24.340;2023-06-10T04:18:51;11.70;;;10.50;;
27728;SDS011;15126;42.186;24.340;2023-06-10T04:21:18;13.53;;;10.30;;
27728;SDS011;15126;42.186;24.340;2023-06-10T04:23:45;16.87;;;9.13;;
27728;SDS011;15126;42.186;24.340;2023-06-10T04:26:12;12.27;;;9.50;;
27728;SDS011;15126;42.186;24.340;2023-06-10T04:28:42;10.83;;;9.63;;
27728;SDS011;15126;42.186;24.340;2023-06-10T04:31:09;13.90;;;10.13;;
27728;SDS011;15126;42.186;24.340;2023-06-10T04:33:36;13.30;;;10.23;;
27728;SDS011;15126;42.186;24.340;2023-06-10T04:36:04;11.27;;;10.10;;
27728;SDS011;15126;42.186;24.340;2023-06-10T04:38:32;17.90;;;10.07;;
27728;SDS011;15126;42.186;24.340;2023-06-10T04:40:58;12.00;;;10.57;;
27728;SDS011;15126;42.186;24.340;2023-06-10T04:43:25;10.40;;;9.30;;
27728;SDS011;15126;42.186;24.340;2023-06-10T04:45:55;14.77;;;9.90;;
27728;SDS011;15126;42.186;24.340;2023-06-10T04:48:22;13.67;;;9.43;;
27728;SDS011;15126;42.186;24.340;2023-06-10T04:50:50;14.93;;;9.97;;
27728;SDS011;15126;42.186;24.340;2023-06-10T04:53:16;10.47;;;9.03;;
27728;SDS011;15126;42.186;24.340;2023-06-10T04:55:43;11.70;;;9.83;;
27728;SDS011;15126;42.186;24.340;2023-06-10T04:58:10;16.13;;;10.37;;
27728;SDS011;15126;42.186;24.340;2023-06-10T05:00:37;10.17;;;9.17;;
27728;SDS011;15126;42.186;24.340;2023-06-10T05:03:05;10.20;;;9.27;;
27728;SDS011;15126;42.186;24.340;2023-06-10T05:05:32;10.07;;;8.93;;
27728;SDS011;15126;42.186;24.340;2023-06-10T05:07:59;12.37;;;9.87;;
27728;SDS011;15126;42.186;24.340;2023-06-10T05:10:25;13.83;;;9.90;;
27728;SDS011;15126;42.186;24.340;2023-06-10T05:12:52;10.90;;;9.90;;
27728;SDS011;15126;42.186;24.340;2023-06-10T05:15:19;10.83;;;9.93;;
27728;SDS011;15126;42.186;24.340;2023-06-10T05:17:46;11.40;;;10.30;;
27728;SDS011;15126;42.186;24.340;2023-06-10T05:20:14;11.87;;;10.67;;
27728;SDS011;15126;42.186;24.340;2023-06-10T05:22:41;11.50;;;10.40;;
27728;SDS011;15126;42.186;24.340;2023-06-10T05:25:08;12.70;;;9.97;;
27728;SDS011;15126;42.186;24.340;2023-06-10T05:27:35;10.43;;;9.53;;
27728;SDS011;15126;42.186;24.340;2023-06-10T05:30:03;11.40;;;10.20;;
27728;SDS011;15126;42.186;24.340;2023-06-10T05:32:32;12.07;;;9.63;;
27728;SDS011;15126;42.186;24.340;2023-06-10T05:34:59;10.43;;;9.33;;
27728;SDS011;15126;42.186;24.340;2023-06-10T05:37:28;17.87;;;9.07;;
27728;SDS011;15126;42.186;24.340;2023-06-10T05:39:55;11.90;;;9.43;;
27728;SDS011;15126;42.186;24.340;2023-06-10T05:42:21;10.63;;;8.50;;
27728;SDS011;15126;42.186;24.340;2023-06-10T05:44:48;10.10;;;9.13;;
27728;SDS011;15126;42.186;24.340;2023-06-10T05:47:15;9.57;;;8.67;;
27728;SDS011;15126;42.186;24.340;2023-06-10T05:49:42;9.87;;;8.70;;
27728;SDS011;15126;42.186;24.340;2023-06-10T05:52:10;11.37;;;8.83;;
27728;SDS011;15126;42.186;24.340;2023-06-10T05:54:39;10.10;;;8.53;;
27728;SDS011;15126;42.186;24.340;2023-06-10T05:57:06;11.90;;;8.57;;
27728;SDS011;15126;42.186;24.340;2023-06-10T05:59:33;9.20;;;8.30;;
27728;SDS011;15126;42.186;24.340;2023-06-10T06:02:00;9.33;;;8.23;;
27728;SDS011;15126;42.186;24.340;2023-06-10T06:04:29;8.87;;;7.93;;
27728;SDS011;15126;42.186;24.340;2023-06-10T06:06:58;8.30;;;7.17;;
27728;SDS011;15126;42.186;24.340;2023-06-10T06:09:25;9.50;;;7.27;;
27728;SDS011;15126;42.186;24.340;2023-06-10T06:11:53;8.13;;;7.33;;
27728;SDS011;15126;42.186;24.340;2023-06-10T06:14:20;7.83;;;7.03;;
27728;SDS011;15126;42.186;24.340;2023-06-10T06:16:47;8.90;;;7.50;;
27728;SDS011;15126;42.186;24.340;2023-06-10T06:19:14;7.70;;;7.03;;
27728;SDS011;15126;42.186;24.340;2023-06-10T06:21:41;8.43;;;7.63;;
27728;SDS011;15126;42.186;24.340;2023-06-10T06:24:07;7.87;;;7.07;;
27728;SDS011;15126;42.186;24.340;2023-06-10T06:26:34;10.33;;;7.73;;
27728;SDS011;15126;42.186;24.340;2023-06-10T06:29:03;9.13;;;7.60;;
27728;SDS011;15126;42.186;24.340;2023-06-10T06:31:30;9.53;;;8.17;;
27728;SDS011;15126;42.186;24.340;2023-06-10T06:33:57;15.47;;;7.73;;
27728;SDS011;15126;42.186;24.340;2023-06-10T06:36:23;10.90;;;8.23;;
27728;SDS011;15126;42.186;24.340;2023-06-10T06:38:50;8.97;;;7.30;;
27728;SDS011;15126;42.186;24.340;2023-06-10T06:41:17;10.57;;;8.33;;
27728;SDS011;15126;42.186;24.340;2023-06-10T06:43:44;9.03;;;7.23;;
27728;SDS011;15126;42.186;24.340;2023-06-10T06:46:12;7.43;;;6.70;;
27728;SDS011;15126;42.186;24.340;2023-06-10T06:48:40;7.30;;;6.80;;
27728;SDS011;15126;42.186;24.340;2023-06-10T06:51:07;7.03;;;6.43;;
27728;SDS011;15126;42.186;24.340;2023-06-10T06:53:34;9.07;;;6.00;;
27728;SDS011;15126;42.186;24.340;2023-06-10T06:56:01;7.67;;;6.87;;
27728;SDS011;15126;42.186;24.340;2023-06-10T06:58:29;8.00;;;6.43;;
27728;SDS011;15126;42.186;24.340;2023-06-10T07:00:55;7.60;;;6.67;;
27728;SDS011;15126;42.186;24.340;2023-06-10T07:03:24;7.33;;;6.53;;
27728;SDS011;15126;42.186;24.340;2023-06-10T07:05:51;10.23;;;6.43;;
27728;SDS011;15126;42.186;24.340;2023-06-10T07:08:18;12.13;;;7.50;;
27728;SDS011;15126;42.186;24.340;2023-06-10T07:10:44;7.63;;;6.83;;
27728;SDS011;15126;42.186;24.340;2023-06-10T07:13:11;7.63;;;6.93;;
27728;SDS011;15126;42.186;24.340;2023-06-10T07:15:39;7.10;;;6.40;;
27728;SDS011;15126;42.186;24.340;2023-06-10T07:18:06;9.00;;;6.30;;
27728;SDS011;15126;42.186;24.340;2023-06-10T07:20:34;12.90;;;6.70;;
27728;SDS011;15126;42.186;24.340;2023-06-10T07:23:01;8.20;;;6.40;;
27728;SDS011;15126;42.186;24.340;2023-06-10T07:25:27;9.53;;;6.60;;
27728;SDS011;15126;42.186;24.340;2023-06-10T07:27:54;7.77;;;6.43;;
27728;SDS011;15126;42.186;24.340;2023-06-10T07:30:21;7.77;;;6.60;;
27728;SDS011;15126;42.186;24.340;2023-06-10T07:32:48;7.32;;;6.72;;
27728;SDS011;15126;42.186;24.340;2023-06-10T07:35:16;7.55;;;6.05;;
27728;SDS011;15126;42.186;24.340;2023-06-10T07:37:45;9.50;;;7.20;;
27728;SDS011;15126;42.186;24.340;2023-06-10T07:40:12;7.67;;;6.97;;
27728;SDS011;15126;42.186;24.340;2023-06-10T07:42:39;7.37;;;6.80;;
27728;SDS011;15126;42.186;24.340;2023-06-10T07:45:07;6.90;;;6.20;;
27728;SDS011;15126;42.186;24.340;2023-06-10T07:47:34;9.33;;;7.17;;
27728;SDS011;15126;42.186;24.340;2023-06-10T07:50:01;7.63;;;6.60;;
27728;SDS011;15126;42.186;24.340;2023-06-10T07:52:28;7.57;;;5.83;;
27728;SDS011;15126;42.186;24.340;2023-06-10T07:54:56;7.67;;;6.87;;
27728;SDS011;15126;42.186;24.340;2023-06-10T07:57:23;7.63;;;6.83;;
27728;SDS011;15126;42.186;24.340;2023-06-10T07:59:49;6.22;;;5.68;;
27728;SDS011;15126;42.186;24.340;2023-06-10T08:02:16;7.28;;;5.53;;
27728;SDS011;15126;42.186;24.340;2023-06-10T08:04:43;6.65;;;6.05;;
27728;SDS011;15126;42.186;24.340;2023-06-10T08:07:10;7.35;;;6.65;;
27728;SDS011;15126;42.186;24.340;2023-06-10T08:09:37;8.13;;;6.00;;
27728;SDS011;15126;42.186;24.340;2023-06-10T08:12:05;6.20;;;5.60;;
27728;SDS011;15126;42.186;24.340;2023-06-10T08:14:33;8.53;;;6.00;;
27728;SDS011;15126;42.186;24.340;2023-06-10T08:17:00;8.60;;;6.03;;
27728;SDS011;15126;42.186;24.340;2023-06-10T08:19:27;8.03;;;6.27;;
27728;SDS011;15126;42.186;24.340;2023-06-10T08:21:53;7.10;;;6.33;;
27728;SDS011;15126;42.186;24.340;2023-06-10T08:24:20;10.63;;;7.17;;
27728;SDS011;15126;42.186;24.340;2023-06-10T08:26:47;6.43;;;5.63;;
27728;SDS011;15126;42.186;24.340;2023-06-10T08:29:15;6.37;;;5.77;;
27728;SDS011;15126;42.186;24.340;2023-06-10T08:31:42;7.63;;;6.60;;
27728;SDS011;15126;42.186;24.340;2023-06-10T08:34:10;8.17;;;6.53;;
27728;SDS011;15126;42.186;24.340;2023-06-10T08:36:37;6.57;;;6.03;;
27728;SDS011;15126;42.186;24.340;2023-06-10T08:39:04;6.10;;;5.67;;
27728;SDS011;15126;42.186;24.340;2023-06-10T08:41:34;6.60;;;5.77;;
27728;SDS011;15126;42.186;24.340;2023-06-10T08:44:03;10.63;;;5.32;;
27728;SDS011;15126;42.186;24.340;2023-06-10T08:46:36;5.72;;;5.22;;
27728;SDS011;15126;42.186;24.340;2023-06-10T08:49:03;7.93;;;6.00;;
27728;SDS011;15126;42.186;24.340;2023-06-10T08:51:32;6.82;;;6.20;;
27728;SDS011;15126;42.186;24.340;2023-06-10T08:54:02;6.53;;;6.00;;
27728;SDS011;15126;42.186;24.340;2023-06-10T08:56:35;6.40;;;5.80;;
27728;SDS011;15126;42.186;24.340;2023-06-10T08:59:06;8.93;;;6.37;;
27728;SDS011;15126;42.186;24.340;2023-06-10T09:01:33;7.40;;;5.83;;
27728;SDS011;15126;42.186;24.340;2023-06-10T09:04:03;7.73;;;6.37;;
27728;SDS011;15126;42.186;24.340;2023-06-10T09:06:30;7.13;;;6.53;;
27728;SDS011;15126;42.186;24.340;2023-06-10T09:08:59;8.77;;;5.57;;
27728;SDS011;15126;42.186;24.340;2023-06-10T09:11:26;10.83;;;6.37;;
27728;SDS011;15126;42.186;24.340;2023-06-10T09:13:52;9.60;;;6.13;;
27728;SDS011;15126;42.186;24.340;2023-06-10T09:16:19;6.00;;;5.40;;
27728;SDS011;15126;42.186;24.340;2023-06-10T09:18:47;9.63;;;6.20;;
27728;SDS011;15126;42.186;24.340;2023-06-10T09:21:20;7.83;;;5.60;;
27728;SDS011;15126;42.186;24.340;2023-06-10T09:23:47;5.90;;;5.40;;
27728;SDS011;15126;42.186;24.340;2023-06-10T09:26:14;5.37;;;4.87;;
27728;SDS011;15126;42.186;24.340;2023-06-10T09:28:41;7.73;;;5.33;;
27728;SDS011;15126;42.186;24.340;2023-06-10T09:31:09;5.43;;;5.00;;
27728;SDS011;15126;42.186;24.340;2023-06-10T09:33:36;6.07;;;5.50;;
27728;SDS011;15126;42.186;24.340;2023-06-10T09:36:06;5.90;;;4.68;;
27728;SDS011;15126;42.186;24.340;2023-06-10T09:38:34;6.03;;;5.43;;
27728;SDS011;15126;42.186;24.340;2023-06-10T09:41:02;6.35;;;5.53;;
27728;SDS011;15126;42.186;24.340;2023-06-10T09:43:39;8.10;;;6.05;;
27728;SDS011;15126;42.186;24.340;2023-06-10T09:46:07;7.47;;;5.30;;
27728;SDS011;15126;42.186;24.340;2023-06-10T09:48:41;5.60;;;5.20;;
27728;SDS011;15126;42.186;24.340;2023-06-10T09:51:10;6.60;;;6.00;;
27728;SDS011;15126;42.186;24.340;2023-06-10T09:53:38;10.65;;;5.65;;
27728;SDS011;15126;42.186;24.340;2023-06-10T09:56:05;6.30;;;5.70;;
27728;SDS011;15126;42.186;24.340;2023-06-10T09:58:36;7.60;;;6.10;;
27728;SDS011;15126;42.186;24.340;2023-06-10T10:01:07;6.33;;;5.73;;
27728;SDS011;15126;42.186;24.340;2023-06-10T10:03:42;8.98;;;5.78;;
27728;SDS011;15126;42.186;24.340;2023-06-10T10:06:11;7.27;;;5.70;;
27728;SDS011;15126;42.186;24.340;2023-06-10T10:08:39;6.87;;;6.13;;
27728;SDS011;15126;42.186;24.340;2023-06-10T10:11:05;5.07;;;4.37;;
27728;SDS011;15126;42.186;24.340;2023-06-10T10:13:33;8.10;;;6.20;;
27728;SDS011;15126;42.186;24.340;2023-06-10T10:16:01;9.43;;;6.00;;
27728;SDS011;15126;42.186;24.340;2023-06-10T10:18:32;7.23;;;5.87;;
27728;SDS011;15126;42.186;24.340;2023-06-10T10:21:05;9.33;;;6.17;;
27728;SDS011;15126;42.186;24.340;2023-06-10T10:23:39;5.67;;;5.17;;
27728;SDS011;15126;42.186;24.340;2023-06-10T10:26:10;6.13;;;5.17;;
27728;SDS011;15126;42.186;24.340;2023-06-10T10:28:41;8.50;;;5.77;;
27728;SDS011;15126;42.186;24.340;2023-06-10T10:31:11;6.47;;;5.97;;
27728;SDS011;15126;42.186;24.340;2023-06-10T10:33:45;11.13;;;6.17;;
27728;SDS011;15126;42.186;24.340;2023-06-10T10:36:19;8.03;;;6.57;;
27728;SDS011;15126;42.186;24.340;2023-06-10T10:38:48;11.33;;;6.30;;
27728;SDS011;15126;42.186;24.340;2023-06-10T10:41:15;7.47;;;6.07;;
27728;SDS011;15126;42.186;24.340;2023-06-10T10:43:44;10.30;;;6.00;;
27728;SDS011;15126;42.186;24.340;2023-06-10T10:46:13;7.07;;;6.50;;
27728;SDS011;15126;42.186;24.340;2023-06-10T10:48:40;7.40;;;6.00;;
27728;SDS011;15126;42.186;24.340;2023-06-10T10:51:08;6.67;;;6.07;;
27728;SDS011;15126;42.186;24.340;2023-06-10T10:53:36;9.87;;;7.27;;
27728;SDS011;15126;42.186;24.340;2023-06-10T10:56:06;6.63;;;6.03;;
27728;SDS011;15126;42.186;24.340;2023-06-10T10:58:34;7.83;;;7.17;;
27728;SDS011;15126;42.186;24.340;2023-06-10T11:01:09;8.57;;;7.43;;
27728;SDS011;15126;42.186;24.340;2023-06-10T11:03:41;6.57;;;5.97;;
27728;SDS011;15126;42.186;24.340;2023-06-10T11:06:11;7.07;;;6.27;;
27728;SDS011;15126;42.186;24.340;2023-06-10T11:08:45;6.87;;;6.20;;
27728;SDS011;15126;42.186;24.340;2023-06-10T11:11:23;6.38;;;5.63;;
27728;SDS011;15126;42.186;24.340;2023-06-10T11:13:58;6.55;;;5.57;;
27728;SDS011;15126;42.186;24.340;2023-06-10T11:16:27;7.55;;;5.70;;
27728;SDS011;15126;42.186;24.340;2023-06-10T11:18:55;6.72;;;6.18;;
27728;SDS011;15126;42.186;24.340;2023-06-10T11:21:22;5.32;;;4.78;;
27728;SDS011;15126;42.186;24.340;2023-06-10T11:23:50;6.35;;;5.68;;
27728;SDS011;15126;42.186;24.340;2023-06-10T11:26:18;6.90;;;6.28;;
27728;SDS011;15126;42.186;24.340;2023-06-10T11:29:07;7.13;;;6.43;;
27728;SDS011;15126;42.186;24.340;2023-06-10T11:31:39;6.32;;;5.35;;
27728;SDS011;15126;42.186;24.340;2023-06-10T11:34:07;6.47;;;5.53;;
27728;SDS011;15126;42.186;24.340;2023-06-10T11:36:36;5.50;;;5.03;;
27728;SDS011;15126;42.186;24.340;2023-06-10T11:39:07;5.63;;;5.07;;
27728;SDS011;15126;42.186;24.340;2023-06-10T11:41:35;5.95;;;5.35;;
27728;SDS011;15126;42.186;24.340;2023-06-10T11:44:09;7.10;;;5.65;;
27728;SDS011;15126;42.186;24.340;2023-06-10T11:46:37;9.63;;;6.78;;
27728;SDS011;15126;42.186;24.340;2023-06-10T11:49:05;4.55;;;4.15;;
27728;SDS011;15126;42.186;24.340;2023-06-10T11:51:33;6.38;;;5.03;;
27728;SDS011;15126;42.186;24.340;2023-06-10T11:54:04;5.28;;;4.72;;
27728;SDS011;15126;42.186;24.340;2023-06-10T11:56:31;4.32;;;3.72;;
27728;SDS011;15126;42.186;24.340;2023-06-10T11:58:59;8.32;;;4.78;;
27728;SDS011;15126;42.186;24.340;2023-06-10T12:01:31;7.57;;;5.10;;
27728;SDS011;15126;42.186;24.340;2023-06-10T12:03:59;5.80;;;4.82;;
27728;SDS011;15126;42.186;24.340;2023-06-10T12:06:33;5.18;;;4.53;;
27728;SDS011;15126;42.186;24.340;2023-06-10T12:09:04;5.18;;;4.65;;
27728;SDS011;15126;42.186;24.340;2023-06-10T12:11:31;5.20;;;4.80;;
27728;SDS011;15126;42.186;24.340;2023-06-10T12:13:59;9.73;;;5.25;;
27728;SDS011;15126;42.186;24.340;2023-06-10T12:16:27;6.78;;;4.55;;
27728;SDS011;15126;42.186;24.340;2023-06-10T12:19:00;5.18;;;4.72;;
27728;SDS011;15126;42.186;24.340;2023-06-10T12:21:29;6.13;;;4.68;;
27728;SDS011;15126;42.186;24.340;2023-06-10T12:24:00;4.50;;;4.20;;
27728;SDS011;15126;42.186;24.340;2023-06-10T12:26:35;4.88;;;4.47;;
27728;SDS011;15126;42.186;24.340;2023-06-10T12:29:12;6.28;;;4.22;;
27728;SDS011;15126;42.186;24.340;2023-06-10T12:31:54;5.72;;;4.75;;
27728;SDS011;15126;42.186;24.340;2023-06-10T12:34:33;5.05;;;4.65;;
27728;SDS011;15126;42.186;24.340;2023-06-10T12:37:02;6.25;;;4.50;;
27728;SDS011;15126;42.186;24.340;2023-06-10T12:39:30;5.35;;;4.82;;
27728;SDS011;15126;42.186;24.340;2023-06-10T12:41:58;6.70;;;5.03;;
27728;SDS011;15126;42.186;24.340;2023-06-10T12:44:32;4.05;;;3.75;;
27728;SDS011;15126;42.186;24.340;2023-06-10T12:46:59;7.25;;;4.70;;
27728;SDS011;15126;42.186;24.340;2023-06-10T12:49:35;4.30;;;4.00;;
27728;SDS011;15126;42.186;24.340;2023-06-10T12:52:02;5.60;;;3.58;;
27728;SDS011;15126;42.186;24.340;2023-06-10T12:54:34;4.93;;;4.10;;
27728;SDS011;15126;42.186;24.340;2023-06-10T12:57:01;4.45;;;4.05;;
27728;SDS011;15126;42.186;24.340;2023-06-10T12:59:28;6.65;;;4.50;;
27728;SDS011;15126;42.186;24.340;2023-06-10T13:02:00;4.65;;;4.22;;
27728;SDS011;15126;42.186;24.340;2023-06-10T13:04:29;4.82;;;4.43;;
27728;SDS011;15126;42.186;24.340;2023-06-10T13:06:57;4.65;;;4.00;;
27728;SDS011;15126;42.186;24.340;2023-06-10T13:09:24;4.50;;;4.13;;
27728;SDS011;15126;42.186;24.340;2023-06-10T13:11:51;7.07;;;4.97;;
27728;SDS011;15126;42.186;24.340;2023-06-10T13:14:18;3.95;;;3.65;;
27728;SDS011;15126;42.186;24.340;2023-06-10T13:16:45;4.93;;;4.53;;
27728;SDS011;15126;42.186;24.340;2023-06-10T13:19:11;5.00;;;4.05;;
27728;SDS011;15126;42.186;24.340;2023-06-10T13:21:38;4.20;;;3.80;;
27728;SDS011;15126;42.186;24.340;2023-06-10T13:24:07;6.43;;;4.22;;
27728;SDS011;15126;42.186;24.340;2023-06-10T13:26:38;4.38;;;3.97;;
27728;SDS011;15126;42.186;24.340;2023-06-10T13:29:05;4.75;;;4.25;;
27728;SDS011;15126;42.186;24.340;2023-06-10T13:31:33;5.15;;;4.40;;
27728;SDS011;15126;42.186;24.340;2023-06-10T13:33:59;4.93;;;4.45;;
27728;SDS011;15126;42.186;24.340;2023-06-10T13:36:27;5.97;;;4.15;;
27728;SDS011;15126;42.186;24.340;2023-06-10T13:38:53;4.90;;;4.45;;
27728;SDS011;15126;42.186;24.340;2023-06-10T13:41:22;4.90;;;4.43;;
27728;SDS011;15126;42.186;24.340;2023-06-10T13:43:49;4.47;;;4.18;;
27728;SDS011;15126;42.186;24.340;2023-06-10T13:46:16;4.25;;;3.92;;
27728;SDS011;15126;42.186;24.340;2023-06-10T13:48:45;4.85;;;4.32;;
27728;SDS011;15126;42.186;24.340;2023-06-10T13:51:12;4.57;;;4.10;;
27728;SDS011;15126;42.186;24.340;2023-06-10T13:53:38;3.95;;;3.60;;
27728;SDS011;15126;42.186;24.340;2023-06-10T13:56:05;4.25;;;3.53;;
27728;SDS011;15126;42.186;24.340;2023-06-10T13:58:34;6.60;;;3.90;;
27728;SDS011;15126;42.186;24.340;2023-06-10T14:01:04;4.53;;;4.05;;
27728;SDS011;15126;42.186;24.340;2023-06-10T14:03:31;5.78;;;3.75;;
27728;SDS011;15126;42.186;24.340;2023-06-10T14:05:57;5.15;;;3.58;;
27728;SDS011;15126;42.186;24.340;2023-06-10T14:08:24;8.20;;;3.58;;
27728;SDS011;15126;42.186;24.340;2023-06-10T14:10:51;8.95;;;3.97;;
27728;SDS011;15126;42.186;24.340;2023-06-10T14:13:18;3.88;;;3.58;;
27728;SDS011;15126;42.186;24.340;2023-06-10T14:15:46;4.70;;;4.05;;
27728;SDS011;15126;42.186;24.340;2023-06-10T14:18:13;5.57;;;4.57;;
27728;SDS011;15126;42.186;24.340;2023-06-10T14:20:40;5.95;;;4.50;;
27728;SDS011;15126;42.186;24.340;2023-06-10T14:23:07;4.75;;;3.75;;
27728;SDS011;15126;42.186;24.340;2023-06-10T14:25:35;4.95;;;3.88;;
27728;SDS011;15126;42.186;24.340;2023-06-10T14:28:02;5.32;;;4.38;;
27728;SDS011;15126;42.186;24.340;2023-06-10T14:30:29;5.30;;;4.90;;
27728;SDS011;15126;42.186;24.340;2023-06-10T14:32:57;7.90;;;5.18;;
27728;SDS011;15126;42.186;24.340;2023-06-10T14:35:24;11.77;;;6.50;;